createdAt,value
2023-05-14T00:01:42.006Z,8.27
2023-05-14T00:04:44.501Z,8.32
2023-05-14T00:07:46.827Z,8.19
2023-05-14T00:10:49.207Z,8.33
2023-05-14T00:13:51.588Z,8.25
2023-05-14T00:16:53.937Z,8.24
2023-05-14T00:19:56.476Z,8.30
2023-05-14T00:22:58.895Z,8.07
2023-05-14T00:26:01.229Z,7.94
2023-05-14T00:29:03.534Z,7.82
2023-05-14T00:32:06.474Z,7.79
2023-05-14T00:35:09.262Z,7.77
2023-05-14T00:38:16.941Z,7.62
2023-05-14T00:41:19.324Z,7.57
2023-05-14T00:44:21.751Z,7.44
2023-05-14T00:47:24.177Z,7.61
2023-05-14T00:50:26.746Z,7.28
2023-05-14T00:53:29.509Z,7.68
2023-05-14T00:56:31.931Z,7.55
2023-05-14T00:59:34.732Z,7.29
2023-05-14T01:02:37.126Z,7.53
2023-05-14T01:06:13.960Z,7.44
2023-05-14T01:09:22.784Z,7.14
2023-05-14T01:12:50.946Z,7.29
2023-05-14T01:15:57.288Z,7.19
2023-05-14T01:19:00.849Z,6.88
2023-05-14T01:22:03.382Z,6.94
2023-05-14T01:25:07.085Z,6.97
2023-05-14T01:28:19.934Z,7.08
2023-05-14T01:31:28.018Z,6.93
2023-05-14T01:34:31.378Z,6.95
2023-05-14T01:37:36.295Z,6.96
2023-05-14T01:40:39.586Z,6.67
2023-05-14T01:43:42.524Z,6.87
2023-05-14T01:46:44.903Z,7.22
2023-05-14T01:49:47.393Z,7.06
2023-05-14T01:52:51.272Z,7.10
2023-05-14T01:55:53.616Z,6.96
2023-05-14T01:58:56.895Z,6.83
2023-05-14T02:01:59.284Z,6.61
2023-05-14T02:05:01.786Z,6.65
2023-05-14T02:08:04.423Z,6.81
2023-05-14T02:11:08.101Z,6.48
2023-05-14T02:14:10.874Z,6.45
2023-05-14T02:17:15.969Z,6.56
2023-05-14T02:20:18.544Z,6.36
2023-05-14T02:23:28.107Z,6.74
2023-05-14T02:26:36.901Z,6.58
2023-05-14T02:29:39.534Z,6.58
2023-05-14T02:32:42.047Z,6.39
2023-05-14T02:35:44.431Z,6.50
2023-05-14T02:38:46.811Z,6.42
2023-05-14T02:41:49.201Z,6.53
2023-05-14T02:44:52.963Z,6.59
2023-05-14T02:47:56.531Z,6.43
2023-05-14T02:50:58.928Z,6.34
2023-05-14T02:54:01.350Z,6.34
2023-05-14T02:57:03.886Z,6.21
2023-05-14T03:00:06.914Z,6.37
2023-05-14T03:03:09.742Z,6.27
2023-05-14T03:06:12.807Z,6.30
2023-05-14T03:09:15.295Z,6.28
2023-05-14T03:12:18.228Z,6.26
2023-05-14T03:15:20.598Z,6.35
2023-05-14T03:18:23.108Z,6.48
2023-05-14T03:21:25.538Z,6.39
2023-05-14T03:24:27.886Z,6.30
2023-05-14T03:27:30.313Z,6.49
2023-05-14T03:30:32.891Z,6.33
2023-05-14T03:33:35.443Z,6.55
2023-05-14T03:36:39.720Z,6.54
2023-05-14T03:39:42.136Z,6.61
2023-05-14T03:42:44.554Z,6.86
2023-05-14T03:45:47.069Z,6.91
2023-05-14T03:48:51.979Z,7.07
2023-05-14T03:51:54.543Z,7.25
2023-05-14T03:54:56.993Z,7.33
2023-05-14T03:57:59.382Z,7.23
2023-05-14T04:01:02.164Z,7.29
2023-05-14T04:04:04.800Z,7.67
2023-05-14T04:07:07.434Z,7.79
2023-05-14T04:10:09.966Z,7.71
2023-05-14T04:13:12.350Z,7.98
2023-05-14T04:16:15.942Z,7.97
2023-05-14T04:19:20.154Z,8.26
2023-05-14T04:22:22.558Z,8.35
2023-05-14T04:25:24.875Z,8.49
2023-05-14T04:28:27.285Z,8.69
2023-05-14T04:31:30.415Z,8.60
2023-05-14T04:34:32.800Z,8.77
2023-05-14T04:37:35.185Z,8.78
2023-05-14T04:40:37.515Z,8.67
2023-05-14T04:43:40.478Z,9.31
2023-05-14T04:46:42.806Z,9.42
2023-05-14T04:49:45.238Z,9.46
2023-05-14T04:52:47.839Z,9.95
2023-05-14T04:55:50.246Z,10.18
2023-05-14T04:58:52.653Z,10.81
2023-05-14T05:01:55.127Z,10.98
2023-05-14T05:04:57.546Z,11.51
2023-05-14T05:08:00.198Z,11.95
2023-05-14T05:11:02.575Z,12.49
2023-05-14T05:14:04.924Z,12.67
2023-05-14T05:17:07.346Z,13.01
2023-05-14T05:20:10.222Z,13.06
2023-05-14T05:23:12.545Z,13.29
2023-05-14T05:26:14.880Z,13.48
2023-05-14T05:29:17.644Z,13.81
2023-05-14T05:32:20.044Z,14.00
2023-05-14T05:35:22.534Z,14.27
2023-05-14T05:38:24.965Z,14.38
2023-05-14T05:41:27.298Z,14.68
2023-05-14T05:44:29.601Z,14.78
2023-05-14T05:47:31.932Z,15.10
2023-05-14T05:50:34.323Z,15.30
2023-05-14T05:53:36.841Z,15.63
2023-05-14T05:56:39.179Z,15.87
2023-05-14T05:59:41.530Z,16.18
2023-05-14T06:02:44.359Z,16.22
2023-05-14T06:05:46.990Z,16.63
2023-05-14T06:08:49.689Z,16.97
2023-05-14T06:11:52.144Z,17.02
2023-05-14T06:14:55.702Z,17.15
2023-05-14T06:17:58.196Z,16.68
2023-05-14T06:21:00.615Z,16.59
2023-05-14T06:24:02.954Z,16.69
2023-05-14T06:27:05.542Z,16.71
2023-05-14T06:30:08.510Z,16.62
2023-05-14T06:33:12.965Z,16.64
2023-05-14T06:36:15.287Z,16.83
2023-05-14T06:39:17.632Z,16.59
2023-05-14T06:42:19.987Z,16.57
2023-05-14T06:45:23.302Z,16.74
2023-05-14T06:48:27.851Z,16.83
2023-05-14T06:51:30.740Z,17.22
2023-05-14T06:54:33.105Z,17.22
2023-05-14T06:57:35.534Z,17.63
2023-05-14T07:00:37.984Z,18.03
2023-05-14T07:03:40.467Z,18.69
2023-05-14T07:06:42.826Z,18.78
2023-05-14T07:09:45.187Z,18.26
2023-05-14T07:12:49.315Z,18.25
2023-05-14T07:15:51.730Z,18.00
2023-05-14T07:18:54.161Z,18.17
2023-05-14T07:21:57.907Z,18.19
2023-05-14T07:25:00.315Z,17.99
2023-05-14T07:28:02.773Z,18.02
2023-05-14T07:31:08.950Z,18.32
2023-05-14T07:34:12.768Z,18.58
2023-05-14T07:37:15.364Z,18.43
2023-05-14T07:40:17.791Z,18.58
2023-05-14T07:43:20.179Z,18.47
2023-05-14T07:46:23.949Z,18.94
2023-05-14T07:49:26.301Z,19.38
2023-05-14T07:52:28.794Z,19.99
2023-05-14T07:55:31.460Z,19.89
2023-05-14T07:58:35.105Z,19.73
2023-05-14T08:01:39.329Z,19.78
2023-05-14T08:04:42.031Z,20.37
2023-05-14T08:07:44.964Z,20.31
2023-05-14T08:10:47.325Z,20.65
2023-05-14T08:13:49.814Z,20.63
2023-05-14T08:16:52.363Z,20.61
2023-05-14T08:19:54.853Z,20.71
2023-05-14T08:22:58.115Z,20.36
2023-05-14T08:26:00.502Z,20.22
2023-05-14T08:29:02.827Z,19.90
2023-05-14T08:32:15.525Z,20.09
2023-05-14T08:35:24.859Z,20.03
2023-05-14T08:38:27.221Z,19.79
2023-05-14T08:41:30.167Z,19.50
2023-05-14T08:44:57.188Z,19.06
2023-05-14T08:48:02.021Z,19.08
2023-05-14T08:51:04.638Z,19.21
2023-05-14T08:54:07.429Z,19.52
2023-05-14T08:57:11.161Z,19.61
2023-05-14T09:00:15.623Z,19.86
2023-05-14T09:03:18.478Z,20.04
2023-05-14T09:06:22.278Z,20.20
2023-05-14T09:09:24.666Z,19.88
2023-05-14T09:12:27.033Z,19.99
2023-05-14T09:15:31.055Z,19.89
2023-05-14T09:18:36.083Z,20.14
2023-05-14T09:21:38.654Z,20.05
2023-05-14T09:24:41.809Z,20.45
2023-05-14T09:27:50.221Z,20.40
2023-05-14T09:30:52.707Z,20.91
2023-05-14T09:33:55.057Z,20.99
2023-05-14T09:36:59.268Z,21.46
2023-05-14T09:40:06.789Z,21.95
2023-05-14T09:43:09.729Z,22.73
2023-05-14T09:46:12.111Z,22.89
2023-05-14T09:49:14.734Z,22.50
2023-05-14T09:52:19.481Z,22.72
2023-05-14T09:55:22.945Z,23.08
2023-05-14T09:58:25.442Z,23.14
2023-05-14T10:01:30.224Z,22.79
2023-05-14T10:04:33.967Z,23.12
2023-05-14T10:07:42.825Z,23.41
2023-05-14T10:10:45.406Z,23.91
2023-05-14T10:14:02.781Z,23.77
2023-05-14T10:17:06.465Z,24.09
2023-05-14T10:20:13.135Z,24.38
2023-05-14T10:23:15.722Z,24.10
2023-05-14T10:26:18.384Z,22.92
2023-05-14T10:29:34.904Z,21.74
2023-05-14T10:32:37.997Z,21.22
2023-05-14T10:36:06.138Z,21.13
2023-05-14T10:39:09.140Z,21.06
2023-05-14T10:42:14.011Z,20.76
2023-05-14T10:45:16.887Z,20.49
2023-05-14T10:48:20.029Z,20.51
2023-05-14T10:51:23.376Z,20.17
2023-05-14T10:54:28.117Z,20.20
2023-05-14T10:57:32.389Z,20.29
2023-05-14T11:00:35.455Z,20.36
2023-05-14T11:03:43.140Z,20.42
2023-05-14T11:06:47.528Z,20.47
2023-05-14T11:09:51.051Z,20.46
2023-05-14T11:12:53.390Z,20.44
2023-05-14T11:15:56.880Z,20.67
2023-05-14T11:19:04.016Z,20.92
2023-05-14T11:22:07.987Z,20.54
2023-05-14T11:25:14.483Z,20.41
2023-05-14T11:28:17.334Z,20.48
2023-05-14T11:31:19.736Z,20.31
2023-05-14T11:34:22.139Z,20.25
2023-05-14T11:37:24.542Z,20.69
2023-05-14T11:40:27.031Z,20.40
2023-05-14T11:43:29.576Z,20.40
2023-05-14T11:46:31.996Z,20.49
2023-05-14T11:49:37.448Z,20.45
2023-05-14T11:52:41.649Z,20.32
2023-05-14T11:55:44.077Z,20.35
2023-05-14T11:58:49.432Z,20.16
2023-05-14T12:01:54.807Z,20.02
2023-05-14T12:04:57.653Z,19.93
2023-05-14T12:08:00.035Z,20.04
2023-05-14T12:11:02.378Z,20.18
2023-05-14T12:14:12.686Z,19.95
2023-05-14T12:17:19.982Z,20.05
2023-05-14T12:20:23.668Z,19.88
2023-05-14T12:23:27.732Z,19.88
2023-05-14T12:26:34.135Z,19.76
2023-05-14T12:29:39.411Z,19.64
2023-05-14T12:32:41.840Z,19.58
2023-05-14T12:35:44.610Z,19.59
2023-05-14T12:38:47.020Z,19.59
2023-05-14T12:41:49.385Z,19.56
2023-05-14T12:44:52.198Z,19.56
2023-05-14T12:47:54.644Z,19.60
2023-05-14T12:50:57.057Z,19.66
2023-05-14T12:53:59.381Z,19.54
2023-05-14T12:57:01.724Z,19.57
2023-05-14T13:00:08.237Z,19.56
2023-05-14T13:03:10.952Z,19.57
2023-05-14T13:06:13.500Z,19.33
2023-05-14T13:09:15.908Z,19.50
2023-05-14T13:12:18.278Z,19.34
2023-05-14T13:15:20.596Z,19.01
2023-05-14T13:18:23.012Z,19.02
2023-05-14T13:21:25.468Z,18.91
2023-05-14T13:24:27.859Z,19.09
2023-05-14T13:27:30.552Z,18.91
2023-05-14T13:30:32.960Z,19.15
2023-05-14T13:33:41.373Z,19.06
2023-05-14T13:36:43.918Z,19.08
2023-05-14T13:39:46.329Z,19.09
2023-05-14T13:42:48.708Z,19.21
2023-05-14T13:45:51.398Z,19.08
2023-05-14T13:48:53.745Z,19.28
2023-05-14T13:51:56.105Z,19.38
2023-05-14T13:54:58.554Z,19.19
2023-05-14T13:58:02.533Z,19.33
2023-05-14T14:01:05.047Z,19.32
2023-05-14T14:04:07.393Z,19.30
2023-05-14T14:07:09.767Z,19.26
2023-05-14T14:10:12.426Z,19.42
2023-05-14T14:13:14.767Z,19.36
2023-05-14T14:16:17.220Z,19.21
2023-05-14T14:19:19.628Z,19.08
2023-05-14T14:22:22.471Z,19.17
2023-05-14T14:25:25.696Z,18.91
2023-05-14T14:28:28.209Z,18.86
2023-05-14T14:31:30.786Z,18.72
2023-05-14T14:34:33.184Z,18.67
2023-05-14T14:37:35.575Z,18.59
2023-05-14T14:40:38.005Z,18.54
2023-05-14T14:43:41.127Z,18.38
2023-05-14T14:46:43.552Z,18.14
2023-05-14T14:49:45.957Z,17.89
2023-05-14T14:52:48.407Z,17.58
2023-05-14T14:55:51.495Z,17.59
2023-05-14T14:58:53.851Z,17.37
2023-05-14T15:01:56.230Z,17.12
2023-05-14T15:04:58.574Z,16.98
2023-05-14T15:08:00.938Z,16.60
2023-05-14T15:11:03.360Z,16.72
2023-05-14T15:14:05.788Z,16.70
2023-05-14T15:17:08.225Z,16.64
2023-05-14T15:20:11.755Z,16.43
2023-05-14T15:23:17.322Z,16.14
2023-05-14T15:26:19.692Z,16.23
2023-05-14T15:29:22.420Z,16.10
2023-05-14T15:32:27.167Z,16.23
2023-05-14T15:35:29.654Z,16.05
2023-05-14T15:38:32.022Z,15.97
2023-05-14T15:41:34.444Z,16.01
2023-05-14T15:44:38.836Z,16.00
2023-05-14T15:47:41.825Z,16.14
2023-05-14T15:50:44.298Z,15.90
2023-05-14T15:53:46.654Z,15.77
2023-05-14T15:56:49.109Z,15.74
2023-05-14T15:59:51.968Z,15.84
2023-05-14T16:02:54.435Z,15.75
2023-05-14T16:05:57.259Z,15.61
2023-05-14T16:09:00.938Z,15.74
2023-05-14T16:12:04.566Z,15.69
2023-05-14T16:15:08.031Z,15.64
2023-05-14T16:18:10.706Z,15.53
2023-05-14T16:21:13.277Z,15.41
2023-05-14T16:24:18.163Z,15.42
2023-05-14T16:27:20.539Z,15.42
2023-05-14T16:30:23.073Z,15.39
2023-05-14T16:33:25.526Z,15.34
2023-05-14T16:36:28.038Z,15.14
2023-05-14T16:39:30.360Z,15.15
2023-05-14T16:42:32.699Z,14.96
2023-05-14T16:45:37.270Z,15.04
2023-05-14T16:48:39.842Z,15.07
2023-05-14T16:51:43.908Z,15.08
2023-05-14T16:54:46.263Z,14.88
2023-05-14T16:57:48.698Z,14.62
2023-05-14T17:00:51.058Z,14.74
2023-05-14T17:03:53.898Z,14.72
2023-05-14T17:06:57.349Z,14.61
2023-05-14T17:10:00.751Z,14.56
2023-05-14T17:13:03.379Z,14.68
2023-05-14T17:16:05.971Z,14.57
2023-05-14T17:19:08.780Z,14.48
2023-05-14T17:22:11.425Z,14.21
2023-05-14T17:25:13.798Z,14.21
2023-05-14T17:28:16.226Z,14.23
2023-05-14T17:31:18.765Z,14.34
2023-05-14T17:34:21.175Z,14.11
2023-05-14T17:37:24.396Z,14.03
2023-05-14T17:40:26.815Z,14.13
2023-05-14T17:43:29.197Z,14.15
2023-05-14T17:46:33.744Z,14.10
2023-05-14T17:49:36.345Z,13.90
2023-05-14T17:52:38.824Z,14.17
2023-05-14T17:55:43.641Z,13.91
2023-05-14T17:58:46.802Z,13.90
2023-05-14T18:01:49.130Z,13.95
2023-05-14T18:04:51.551Z,13.85
2023-05-14T18:07:55.165Z,14.03
2023-05-14T18:10:58.558Z,13.93
2023-05-14T18:14:01.265Z,13.96
2023-05-14T18:17:04.024Z,13.78
2023-05-14T18:20:07.592Z,13.69
2023-05-14T18:23:10.201Z,13.63
2023-05-14T18:26:12.888Z,13.72
2023-05-14T18:29:15.342Z,13.78
2023-05-14T18:32:17.981Z,13.65
2023-05-14T18:35:20.320Z,13.80
2023-05-14T18:38:22.638Z,13.71
2023-05-14T18:41:25.124Z,13.73
2023-05-14T18:44:27.600Z,13.75
2023-05-14T18:47:30.434Z,13.75
2023-05-14T18:50:32.988Z,13.75
2023-05-14T18:53:35.479Z,13.57
2023-05-14T18:56:40.065Z,13.62
2023-05-14T18:59:42.469Z,13.68
2023-05-14T19:02:44.890Z,13.55
2023-05-14T19:05:47.617Z,13.52
2023-05-14T19:08:50.307Z,13.47
2023-05-14T19:11:52.705Z,13.63
2023-05-14T19:14:55.254Z,13.61
2023-05-14T19:17:57.946Z,13.36
2023-05-14T19:21:00.561Z,13.13
2023-05-14T19:24:03.035Z,13.17
2023-05-14T19:27:05.739Z,13.29
2023-05-14T19:30:08.658Z,13.23
2023-05-14T19:33:11.151Z,13.12
2023-05-14T19:36:13.568Z,13.05
2023-05-14T19:39:16.005Z,12.85
2023-05-14T19:42:18.696Z,12.86
2023-05-14T19:45:21.037Z,12.91
2023-05-14T19:48:23.383Z,12.80
2023-05-14T19:51:25.739Z,12.93
2023-05-14T19:54:28.121Z,12.95
2023-05-14T19:57:31.091Z,13.01
2023-05-14T20:00:33.498Z,13.01
2023-05-14T20:03:35.934Z,13.02
2023-05-14T20:06:40.307Z,13.06
2023-05-14T20:09:42.725Z,13.19
2023-05-14T20:12:45.064Z,13.04
2023-05-14T20:15:47.516Z,13.03
2023-05-14T20:18:49.996Z,12.95
2023-05-14T20:21:52.395Z,12.92
2023-05-14T20:24:54.773Z,12.99
2023-05-14T20:27:57.142Z,12.98
2023-05-14T20:31:00.211Z,12.90
2023-05-14T20:34:03.494Z,12.72
2023-05-14T20:37:06.762Z,13.01
2023-05-14T20:40:12.779Z,13.06
2023-05-14T20:43:15.412Z,13.04
2023-05-14T20:46:17.783Z,12.96
2023-05-14T20:49:20.127Z,13.09
2023-05-14T20:52:22.474Z,13.24
2023-05-14T20:55:25.041Z,13.22
2023-05-14T20:58:27.579Z,13.20
2023-05-14T21:01:29.986Z,13.20
2023-05-14T21:04:33.535Z,13.17
2023-05-14T21:07:36.557Z,13.27
2023-05-14T21:10:38.943Z,13.23
2023-05-14T21:13:43.964Z,13.21
2023-05-14T21:16:46.652Z,13.21
2023-05-14T21:19:49.048Z,13.27
2023-05-14T21:22:51.432Z,13.23
2023-05-14T21:25:54.962Z,13.16
2023-05-14T21:28:57.860Z,13.06
2023-05-14T21:32:00.341Z,13.05
2023-05-14T21:35:03.406Z,13.01
2023-05-14T21:38:05.994Z,13.15
2023-05-14T21:41:08.407Z,13.09
2023-05-14T21:44:10.765Z,12.98
2023-05-14T21:47:13.258Z,13.10
2023-05-14T21:50:15.704Z,12.95
2023-05-14T21:53:18.145Z,12.95
2023-05-14T21:56:21.126Z,12.99
2023-05-14T21:59:23.498Z,13.15
2023-05-14T22:02:26.520Z,13.12
2023-05-14T22:05:29.261Z,13.17
2023-05-14T22:08:32.244Z,13.10
2023-05-14T22:11:34.565Z,13.10
2023-05-14T22:14:36.937Z,13.01
2023-05-14T22:17:39.480Z,13.13
2023-05-14T22:20:42.827Z,13.20
2023-05-14T22:23:45.390Z,13.08
2023-05-14T22:26:47.738Z,13.11
2023-05-14T22:29:50.158Z,13.05
2023-05-14T22:32:52.582Z,12.99
2023-05-14T22:35:54.995Z,13.12
2023-05-14T22:38:57.382Z,13.00
2023-05-14T22:41:59.844Z,12.90
2023-05-14T22:45:02.295Z,12.78
2023-05-14T22:48:04.839Z,13.03
2023-05-14T22:51:07.396Z,13.02
2023-05-14T22:54:10.531Z,13.16
2023-05-14T22:57:12.913Z,12.98
2023-05-14T23:00:15.899Z,12.98
2023-05-14T23:03:18.232Z,13.20
2023-05-14T23:06:20.913Z,13.07
2023-05-14T23:09:23.492Z,13.07
2023-05-14T23:12:26.079Z,13.20
2023-05-14T23:15:28.498Z,13.11
2023-05-14T23:18:31.009Z,12.79
2023-05-14T23:21:33.511Z,13.03
2023-05-14T23:24:35.846Z,13.06
2023-05-14T23:27:38.319Z,13.17
2023-05-14T23:30:40.647Z,13.14
2023-05-14T23:33:44.672Z,13.17
2023-05-14T23:36:47.012Z,13.09
2023-05-14T23:39:49.469Z,13.26
2023-05-14T23:42:51.858Z,13.15
2023-05-14T23:45:54.381Z,12.99
2023-05-14T23:48:57.152Z,12.95
2023-05-14T23:51:59.478Z,12.90
2023-05-14T23:55:01.973Z,13.07
2023-05-14T23:58:04.937Z,13.06
